This is the latest recevied weather packets stored in our database for station/object F4BQN-15. If no packets are shown the sender has not sent any weather packets the latest 10 day(s).
| Time | Temp. | Humidity | Pressure | Rain* | Wind** | Luminosity | Snow |
|---|---|---|---|---|---|---|---|
| 1777527165 | 18.89° C | 27% | 987.4 hPa | - | - | - | - |
| 1777527130 | 18.89° C | 27% | 987.4 hPa | - | - | - | - |
| 1777527043 | 18.89° C | 28% | 987.4 hPa | - | - | - | - |
| 1777483703 | 30.56° C | 25% | 983.4 hPa | - | - | - | - |
| 1777482803 | 32.22° C | 26% | 983.3 hPa | - | - | - | - |
| 1777481903 | 35° C | 25% | 983.2 hPa | - | - | - | - |
| 1777481002 | 35° C | 25% | 983.2 hPa | - | - | - | - |
| 1777480157 | 35° C | 24% | 983.1 hPa | - | - | - | - |
| 1777479256 | 36.67° C | 24% | 983 hPa | - | - | - | - |
| 1777478356 | 38.89° C | 24% | 983 hPa | - | - | - | - |
| 1777477456 | 41.11° C | 23% | 982.8 hPa | - | - | - | - |
| 1777476547 | 43.89° C | 23% | 982.8 hPa | - | - | - | - |
| 1777476450 | 43.89° C | 23% | 982.8 hPa | - | - | - | - |
| 1777476029 | 45° C | 23% | 982.7 hPa | - | - | - | - |
| 1777475993 | 45° C | 23% | 982.8 hPa | - | - | - | - |
| 1777475960 | 45° C | 22% | 982.8 hPa | - | - | - | - |
| 1777475853 | 45° C | 23% | 982.7 hPa | - | - | - | - |
| 1777475816 | 45° C | 23% | 982.8 hPa | - | - | - | - |
| 1777475514 | 45° C | 23% | 982.8 hPa | - | - | - | - |
| 1777475481 | 45° C | 22% | 982.9 hPa | - | - | - | - |
| 1777475446 | 45° C | 23% | 982.8 hPa | - | - | - | - |
| 1777475375 | 45° C | 22% | 982.9 hPa | - | - | - | - |
| 1777475232 | 45° C | 21% | 982.9 hPa | - | - | - | - |
| 1777475198 | 45° C | 22% | 982.9 hPa | - | - | - | - |
| 1777475161 | 45° C | 22% | 982.8 hPa | - | - | - | - |
* Rain since midnight (hover to see other rain measurements)
** Current wind speed in m/s (hover to see current wind gust speed)